Time;durP1;ratioP1;P1;durP2;ratioP2;P2;SDS_P1;SDS_P2;PMS_P1;PMS_P2;Temp;Humidity;BMP_temperature;BMP_pressure;BME280_temperature;BME280_humidity;BME280_pressure;Samples;Min_cycle;Max_cycle;Signal;HPM_P1;HPM_P2
2022/01/30 00:00:14;;;;;;;24.80;4.75;;;7.90;45.90;;;;;;5012178;28;20392;-73
2022/01/30 00:02:40;;;;;;;30.40;4.22;;;7.80;45.20;;;;;;5013329;28;20886;-74
2022/01/30 00:05:07;;;;;;;30.35;6.07;;;7.80;45.50;;;;;;5013092;28;20377;-73
2022/01/30 00:07:32;;;;;;;34.63;5.65;;;7.70;46.90;;;;;;5020280;28;20756;-74
2022/01/30 00:09:58;;;;;;;26.25;5.05;;;7.60;47.70;;;;;;4993581;28;20402;-73
2022/01/30 00:12:36;;;;;;;22.55;5.40;;;7.50;48.50;;;;;;4998003;28;20967;-73
2022/01/30 00:15:01;;;;;;;21.25;4.63;;;7.50;48.00;;;;;;5012610;28;20427;-73
2022/01/30 00:17:35;;;;;;;29.70;5.13;;;7.60;46.70;;;;;;5012226;28;20766;-73
2022/01/30 00:20:05;;;;;;;32.67;6.30;;;7.50;47.50;;;;;;5009373;28;20441;-73
2022/01/30 00:28:08;;;;;;;27.65;5.25;;;7.20;50.30;;;;;;5010978;28;20488;-73
2022/01/30 00:30:14;;;;;;;37.88;5.95;;;7.20;49.10;;;;;;5011515;28;20403;-73
2022/01/30 00:32:40;;;;;;;35.50;6.67;;;7.30;49.00;;;;;;5000996;28;20605;-73
2022/01/30 00:35:09;;;;;;;33.85;6.28;;;7.20;49.50;;;;;;5011962;28;20489;-73
2022/01/30 00:37:39;;;;;;;33.72;7.10;;;7.10;49.80;;;;;;5018001;28;20437;-73
2022/01/30 00:40:06;;;;;;;31.08;5.60;;;7.20;49.60;;;;;;5011224;28;20932;-72
2022/01/30 00:42:32;;;;;;;39.00;7.00;;;7.30;48.80;;;;;;4985677;28;20412;-72
2022/01/30 00:44:57;;;;;;;27.10;5.50;;;7.40;47.90;;;;;;5010041;28;20446;-72
2022/01/30 00:47:23;;;;;;;34.13;7.13;;;7.40;47.20;;;;;;5009832;28;20393;-73
2022/01/30 00:49:48;;;;;;;34.97;7.03;;;7.40;47.40;;;;;;5014525;28;20535;-73
2022/01/30 00:52:16;;;;;;;30.30;6.73;;;7.30;47.90;;;;;;5021178;28;20435;-73
2022/01/30 00:54:45;;;;;;;33.15;7.05;;;7.20;48.70;;;;;;5013682;28;20393;-72
2022/01/30 00:57:11;;;;;;;30.90;7.13;;;7.00;49.90;;;;;;5013565;28;20931;-73
2022/01/30 00:59:36;;;;;;;36.83;6.65;;;7.10;49.10;;;;;;5014037;28;20491;-73
2022/01/30 01:02:03;;;;;;;38.33;6.10;;;7.00;49.30;;;;;;5014771;28;20413;-72
2022/01/30 01:04:28;;;;;;;36.10;6.60;;;7.00;49.70;;;;;;5015105;28;20916;-73
2022/01/30 01:06:54;;;;;;;35.47;7.40;;;7.30;46.80;;;;;;5018843;28;20396;-73
2022/01/30 01:09:23;;;;;;;32.63;6.30;;;7.20;47.90;;;;;;5020682;28;20384;-72
2022/01/30 01:25:29;;;;;;;27.90;5.45;;;7.30;47.10;;;;;;5025165;28;20376;-72
2022/01/30 01:27:54;;;;;;;32.17;6.23;;;7.20;46.60;;;;;;5013912;28;20397;-74
2022/01/30 01:30:20;;;;;;;32.47;6.00;;;7.10;47.20;;;;;;5013587;28;20459;-73
2022/01/30 01:32:46;;;;;;;31.00;6.20;;;7.10;48.90;;;;;;5013898;28;20401;-73
2022/01/30 01:35:11;;;;;;;36.93;6.90;;;7.10;48.00;;;;;;5013594;28;20451;-74
2022/01/30 01:37:37;;;;;;;27.83;5.57;;;7.00;47.50;;;;;;5013891;28;20794;-73
2022/01/30 01:40:04;;;;;;;30.63;5.93;;;7.10;47.00;;;;;;5007140;28;20391;-74
2022/01/30 01:42:33;;;;;;;37.63;7.07;;;7.10;46.60;;;;;;4997798;28;20415;-74
2022/01/30 01:45:00;;;;;;;43.47;7.00;;;7.00;46.70;;;;;;5021013;28;20393;-75
2022/01/30 01:47:31;;;;;;;40.95;6.97;;;6.80;47.70;;;;;;5013300;28;20396;-75
2022/01/30 01:49:56;;;;;;;42.10;7.97;;;6.80;48.00;;;;;;5013157;28;20389;-75
2022/01/30 01:52:23;;;;;;;38.33;7.57;;;6.80;48.00;;;;;;5013711;28;20878;-74
2022/01/30 01:54:55;;;;;;;40.90;6.20;;;6.70;48.50;;;;;;5015717;28;20393;-75
2022/01/30 01:57:23;;;;;;;27.45;5.80;;;6.70;48.30;;;;;;5004475;28;20399;-75
2022/01/30 01:59:49;;;;;;;29.25;5.80;;;6.70;49.60;;;;;;5016598;28;20427;-73
2022/01/30 02:02:16;;;;;;;38.00;6.60;;;6.70;48.10;;;;;;5017548;28;20416;-74
2022/01/30 02:04:42;;;;;;;30.50;6.50;;;6.70;48.40;;;;;;5019393;28;20388;-74
2022/01/30 02:09:37;;;;;;;32.63;6.27;;;6.50;49.30;;;;;;5018098;28;20965;-74
2022/01/30 02:12:03;;;;;;;31.98;6.57;;;6.50;49.20;;;;;;5024911;28;20387;-74
2022/01/30 02:14:43;;;;;;;41.97;6.35;;;6.40;49.60;;;;;;5001949;28;20436;-74
2022/01/30 02:27:48;;;;;;;35.30;6.80;;;6.20;50.40;;;;;;5019474;28;20432;-75
2022/01/30 02:30:18;;;;;;;38.22;7.47;;;6.20;50.60;;;;;;5015682;28;20408;-74
2022/01/30 02:32:46;;;;;;;37.97;6.43;;;6.20;50.20;;;;;;5016922;28;20420;-74
2022/01/30 02:35:11;;;;;;;31.00;6.40;;;6.30;50.90;;;;;;5014192;28;20401;-73
2022/01/30 02:37:37;;;;;;;33.40;6.90;;;6.40;48.60;;;;;;5012380;28;20412;-74
2022/01/30 02:40:08;;;;;;;31.77;6.55;;;6.50;48.40;;;;;;5017257;28;20389;-73
2022/01/30 02:42:36;;;;;;;40.87;6.90;;;6.50;47.90;;;;;;5012493;28;20490;-74
2022/01/30 02:45:05;;;;;;;29.73;6.70;;;6.50;48.10;;;;;;5012420;28;20393;-73
2022/01/30 02:50:21;;;;;;;32.97;6.70;;;6.70;46.90;;;;;;5011809;28;20889;-73
2022/01/30 02:52:56;;;;;;;34.08;5.95;;;6.70;46.20;;;;;;4992591;28;20492;-74
2022/01/30 02:55:22;;;;;;;30.58;6.78;;;6.80;45.80;;;;;;5012742;28;20428;-73
2022/01/30 02:57:48;;;;;;;40.75;6.43;;;6.90;46.00;;;;;;5012296;28;20447;-73
2022/01/30 03:00:14;;;;;;;32.67;6.97;;;6.90;44.90;;;;;;4995887;28;20786;-73
2022/01/30 03:02:40;;;;;;;30.67;6.28;;;6.90;44.90;;;;;;5013167;28;20412;-75
2022/01/30 03:05:06;;;;;;;35.60;6.40;;;6.80;45.20;;;;;;5014204;28;20489;-74
2022/01/30 03:07:32;;;;;;;30.38;5.13;;;6.90;45.10;;;;;;5012998;28;20383;-74
2022/01/30 03:09:57;;;;;;;28.80;6.13;;;7.00;44.40;;;;;;5013482;28;21028;-74
2022/01/30 03:12:23;;;;;;;39.20;7.30;;;6.90;44.70;;;;;;5011968;28;20396;-73
2022/01/30 03:14:48;;;;;;;28.03;6.20;;;6.90;45.40;;;;;;5011928;28;20408;-72
2022/01/30 03:17:14;;;;;;;24.30;6.33;;;6.90;44.90;;;;;;5012529;28;20397;-74
2022/01/30 03:19:40;;;;;;;41.17;6.75;;;7.00;44.00;;;;;;5011184;28;20396;-74
2022/01/30 03:22:07;;;;;;;33.47;6.65;;;7.00;44.30;;;;;;5011978;28;20520;-74
2022/01/30 03:24:37;;;;;;;28.20;6.17;;;7.00;44.40;;;;;;5031707;28;20829;-72
2022/01/30 03:27:04;;;;;;;30.63;5.90;;;7.00;44.50;;;;;;5032207;28;20383;-72
2022/01/30 03:29:31;;;;;;;30.70;6.57;;;6.90;44.90;;;;;;5025823;28;20496;-76
2022/01/30 03:31:57;;;;;;;40.05;6.82;;;6.90;44.70;;;;;;5015400;28;20798;-75
2022/01/30 03:34:22;;;;;;;33.43;6.37;;;6.90;45.00;;;;;;5023825;28;20457;-75
2022/01/30 03:36:48;;;;;;;36.73;6.63;;;6.90;45.50;;;;;;5007686;28;20439;-75
2022/01/30 03:39:14;;;;;;;36.93;6.57;;;6.90;45.20;;;;;;4994870;28;20393;-74
2022/01/30 03:41:39;;;;;;;38.47;6.70;;;6.90;45.10;;;;;;4997485;28;20419;-75
2022/01/30 03:44:05;;;;;;;26.25;5.80;;;6.90;45.40;;;;;;5015300;28;20380;-74
2022/01/30 03:46:31;;;;;;;34.08;6.30;;;6.90;45.40;;;;;;5014786;28;20389;-74
2022/01/30 03:48:56;;;;;;;29.27;5.25;;;6.80;45.10;;;;;;5014673;28;20396;-74
2022/01/30 03:51:22;;;;;;;36.67;6.23;;;6.80;45.00;;;;;;5013945;28;20487;-74
2022/01/30 03:53:47;;;;;;;28.80;6.00;;;6.80;45.20;;;;;;5012914;28;20392;-74
2022/01/30 03:56:13;;;;;;;30.77;5.60;;;6.80;45.40;;;;;;4995057;28;20463;-75
2022/01/30 03:58:39;;;;;;;28.50;5.40;;;6.80;45.60;;;;;;5012383;28;20389;-74
2022/01/30 04:01:05;;;;;;;42.03;5.90;;;6.80;45.60;;;;;;5011928;28;20392;-74
2022/01/30 04:03:30;;;;;;;29.80;5.88;;;6.80;45.00;;;;;;5027663;28;20434;-74
2022/01/30 04:05:56;;;;;;;30.00;6.30;;;6.80;45.00;;;;;;5021915;28;20923;-74
2022/01/30 04:08:23;;;;;;;29.87;5.10;;;6.70;45.60;;;;;;5013007;28;20492;-74
2022/01/30 04:10:48;;;;;;;40.63;6.07;;;6.70;46.00;;;;;;5013489;28;20435;-74
2022/01/30 04:13:14;;;;;;;26.08;5.72;;;6.80;45.40;;;;;;5013568;28;20400;-74
2022/01/30 04:15:40;;;;;;;31.33;5.82;;;6.80;45.30;;;;;;5013718;28;20885;-74
2022/01/30 04:18:06;;;;;;;21.42;4.13;;;6.70;46.30;;;;;;5013690;28;20885;-74
2022/01/30 04:20:32;;;;;;;31.08;6.90;;;6.50;47.30;;;;;;5014699;28;20411;-74
2022/01/30 04:22:58;;;;;;;30.63;6.37;;;6.30;48.80;;;;;;5013850;28;20419;-74
2022/01/30 04:25:23;;;;;;;28.45;6.18;;;6.10;50.40;;;;;;5015836;28;20384;-74
2022/01/30 04:27:49;;;;;;;39.10;6.97;;;6.10;51.20;;;;;;5016262;28;20396;-74
2022/01/30 04:30:16;;;;;;;31.88;6.40;;;5.90;52.80;;;;;;4994007;28;20494;-74
2022/01/30 04:32:44;;;;;;;37.20;6.10;;;5.90;53.20;;;;;;5015168;28;20407;-74
2022/01/30 04:35:15;;;;;;;35.67;6.93;;;5.80;53.30;;;;;;5014735;28;20739;-74
2022/01/30 04:38:04;;;;;;;41.92;6.30;;;5.90;53.90;;;;;;5012381;28;20400;-74
2022/01/30 04:56:59;;;;;;;39.75;6.20;;;5.70;54.00;;;;;;5026163;28;20942;-75
2022/01/30 05:02:29;;;;;;;33.20;5.57;;;5.40;56.90;;;;;;5027571;28;20469;-73
2022/01/30 05:07:35;;;;;;;22.37;5.10;;;5.30;57.70;;;;;;5014994;28;20404;-76
2022/01/30 05:10:01;;;;;;;37.78;6.78;;;5.30;58.10;;;;;;4997120;28;20436;-75
2022/01/30 05:12:33;;;;;;;47.15;7.28;;;5.30;58.30;;;;;;5014614;28;20435;-74
2022/01/30 05:14:59;;;;;;;42.25;6.60;;;5.40;57.30;;;;;;5013986;28;20488;-74
2022/01/30 05:17:25;;;;;;;32.93;6.00;;;5.70;55.60;;;;;;5013794;28;20479;-74
2022/01/30 05:19:51;;;;;;;37.63;7.10;;;5.70;55.30;;;;;;5013615;28;20392;-73
2022/01/30 05:22:17;;;;;;;40.28;6.53;;;5.90;53.60;;;;;;5003523;28;20512;-73
2022/01/30 05:24:42;;;;;;;35.50;5.78;;;6.00;52.40;;;;;;5021116;28;20477;-75
2022/01/30 05:27:09;;;;;;;33.08;6.40;;;6.00;52.50;;;;;;5026375;28;20414;-73
2022/01/30 05:29:35;;;;;;;33.22;6.10;;;6.10;52.70;;;;;;5025681;28;20758;-75
2022/01/30 05:32:01;;;;;;;38.50;6.30;;;6.20;52.10;;;;;;5013508;28;20402;-75
2022/01/30 05:34:28;;;;;;;30.33;5.78;;;6.30;51.10;;;;;;4995522;28;20381;-75
2022/01/30 05:36:55;;;;;;;30.40;5.82;;;6.30;50.20;;;;;;5012959;28;20777;-75
2022/01/30 05:39:21;;;;;;;34.65;6.45;;;6.30;50.00;;;;;;5013602;28;20830;-76
2022/01/30 05:41:47;;;;;;;37.27;6.70;;;6.30;49.80;;;;;;5014442;28;20464;-75
2022/01/30 05:44:18;;;;;;;33.63;6.13;;;6.20;50.40;;;;;;5014719;28;20527;-74
2022/01/30 05:46:51;;;;;;;34.50;5.80;;;6.10;51.30;;;;;;5015234;28;20383;-76
2022/01/30 05:49:16;;;;;;;33.53;5.93;;;6.00;51.60;;;;;;4998069;28;20385;-76
2022/01/30 05:51:42;;;;;;;31.10;6.13;;;5.80;52.90;;;;;;5012896;28;20397;-75
2022/01/30 05:54:08;;;;;;;33.87;5.70;;;5.80;53.20;;;;;;5021663;28;20426;-75
2022/01/30 05:56:34;;;;;;;26.67;5.70;;;5.70;53.90;;;;;;4995679;28;20450;-76
2022/01/30 05:59:00;;;;;;;52.15;6.65;;;5.70;54.10;;;;;;5014026;28;20854;-73
2022/01/30 06:01:26;;;;;;;35.45;6.30;;;5.60;54.30;;;;;;5013044;28;20750;-75
2022/01/30 06:03:51;;;;;;;38.50;6.82;;;5.50;55.40;;;;;;5013300;28;20393;-76
2022/01/30 06:06:17;;;;;;;28.47;5.67;;;5.30;57.10;;;;;;5012664;28;20420;-75
2022/01/30 06:08:58;;;;;;;40.27;5.90;;;5.30;58.50;;;;;;5012371;28;20400;-75
2022/01/30 06:11:23;;;;;;;24.03;5.27;;;5.40;56.80;;;;;;5012977;28;20389;-75
2022/01/30 06:13:49;;;;;;;29.27;5.32;;;5.60;55.60;;;;;;5012786;28;20407;-74
2022/01/30 06:16:14;;;;;;;33.83;5.40;;;5.70;53.40;;;;;;5013206;28;20392;-74
2022/01/30 06:18:40;;;;;;;23.75;5.13;;;5.90;51.40;;;;;;5012573;28;20391;-75
2022/01/30 06:21:06;;;;;;;26.60;5.40;;;5.80;51.80;;;;;;5016695;28;20392;-75
2022/01/30 06:23:31;;;;;;;33.75;5.40;;;5.50;52.90;;;;;;4995839;28;20418;-74
2022/01/30 06:25:57;;;;;;;32.00;4.90;;;5.50;53.00;;;;;;5002780;28;20397;-74
2022/01/30 06:28:23;;;;;;;28.30;5.40;;;5.40;53.50;;;;;;5012475;28;20443;-74
2022/01/30 06:30:48;;;;;;;24.25;5.05;;;5.50;52.60;;;;;;4995064;28;20402;-74
2022/01/30 06:33:14;;;;;;;33.65;6.18;;;5.60;51.30;;;;;;5001959;28;20766;-74
2022/01/30 06:35:40;;;;;;;28.47;5.83;;;5.80;50.20;;;;;;5012224;28;20401;-74
2022/01/30 06:38:05;;;;;;;29.30;5.00;;;5.80;50.90;;;;;;5006906;28;20779;-73
2022/01/30 06:40:31;;;;;;;24.00;4.70;;;6.00;48.30;;;;;;5001180;28;20871;-76
2022/01/30 06:42:57;;;;;;;28.33;4.30;;;6.00;47.50;;;;;;4993218;28;20414;-76
2022/01/30 06:45:23;;;;;;;25.60;4.67;;;6.00;47.10;;;;;;5001976;28;20448;-76
2022/01/30 06:47:50;;;;;;;23.42;4.40;;;6.00;47.10;;;;;;5012473;28;20409;-75
2022/01/30 06:50:16;;;;;;;26.30;4.80;;;6.10;46.90;;;;;;5020715;28;20822;-75
2022/01/30 06:52:41;;;;;;;23.60;4.85;;;6.00;47.50;;;;;;5013175;28;20463;-77
2022/01/30 06:55:08;;;;;;;21.60;4.20;;;6.10;46.80;;;;;;5012270;28;20493;-75
2022/01/30 06:57:34;;;;;;;25.92;5.63;;;6.10;46.30;;;;;;5011937;28;20392;-75
2022/01/30 06:59:59;;;;;;;26.65;4.80;;;6.20;45.70;;;;;;5012114;28;20404;-76
2022/01/30 07:02:25;;;;;;;27.20;4.30;;;6.30;44.90;;;;;;4994843;28;20930;-75
2022/01/30 07:04:51;;;;;;;37.60;4.60;;;6.30;45.40;;;;;;5012609;28;20483;-74
2022/01/30 07:07:17;;;;;;;18.20;4.32;;;6.20;45.10;;;;;;5013159;28;20463;-75
2022/01/30 07:09:43;;;;;;;18.00;3.40;;;6.30;45.30;;;;;;5014186;28;20518;-77
2022/01/30 07:12:09;;;;;;;22.95;4.05;;;6.30;44.30;;;;;;5015398;28;20503;-75
2022/01/30 07:14:35;;;;;;;27.15;4.53;;;6.30;44.80;;;;;;5025210;28;20523;-74
2022/01/30 07:17:01;;;;;;;26.20;4.95;;;6.20;45.20;;;;;;5029013;28;20391;-75
2022/01/30 07:19:26;;;;;;;29.92;4.82;;;6.10;45.60;;;;;;5037958;28;20823;-74
2022/01/30 07:21:53;;;;;;;25.93;5.20;;;6.20;45.40;;;;;;5023625;28;20425;-74
2022/01/30 07:24:18;;;;;;;27.33;5.00;;;6.30;45.30;;;;;;5016107;28;20410;-74
2022/01/30 07:26:44;;;;;;;22.93;4.60;;;6.20;46.40;;;;;;5015498;28;20553;-75
2022/01/30 07:29:10;;;;;;;26.57;4.70;;;6.30;44.80;;;;;;5015137;28;20455;-74
2022/01/30 07:31:35;;;;;;;24.52;4.05;;;6.40;43.90;;;;;;4998304;28;20393;-74
2022/01/30 07:34:02;;;;;;;25.20;4.53;;;6.30;44.80;;;;;;5016708;28;20396;-74
2022/01/30 07:36:28;;;;;;;24.80;4.63;;;6.40;44.50;;;;;;4997093;28;20801;-74
2022/01/30 07:38:54;;;;;;;23.60;4.57;;;6.40;44.10;;;;;;5013919;28;20822;-75
2022/01/30 07:41:21;;;;;;;26.77;4.50;;;6.30;44.80;;;;;;5017564;28;20429;-74
2022/01/30 07:43:46;;;;;;;17.90;4.78;;;6.40;43.80;;;;;;5019540;28;20408;-75
2022/01/30 07:46:12;;;;;;;23.80;4.23;;;6.40;43.90;;;;;;5014221;28;20399;-74
2022/01/30 07:48:38;;;;;;;20.53;4.00;;;6.60;42.80;;;;;;5039015;28;20409;-75
2022/01/30 07:51:04;;;;;;;23.05;4.40;;;6.50;42.40;;;;;;5032568;28;20888;-75
2022/01/30 07:53:29;;;;;;;29.23;5.20;;;6.40;43.50;;;;;;5013727;28;20396;-75
2022/01/30 07:55:56;;;;;;;21.10;4.50;;;6.40;43.50;;;;;;5016913;28;20401;-75
2022/01/30 07:58:22;;;;;;;22.42;4.82;;;6.40;43.70;;;;;;5012847;28;20407;-74
2022/01/30 08:00:47;;;;;;;28.15;4.60;;;6.50;44.40;;;;;;5030649;28;20453;-75
2022/01/30 08:03:13;;;;;;;30.27;4.53;;;6.40;44.40;;;;;;5018306;28;20411;-74
2022/01/30 08:05:39;;;;;;;25.97;4.53;;;6.60;44.00;;;;;;5011815;28;20462;-75
2022/01/30 08:08:06;;;;;;;19.90;4.27;;;6.50;43.30;;;;;;5009464;28;20427;-76
2022/01/30 08:10:34;;;;;;;35.42;5.90;;;6.40;43.20;;;;;;5012335;28;20431;-76
2022/01/30 08:13:00;;;;;;;29.30;4.80;;;6.20;44.60;;;;;;5015235;28;20399;-75
2022/01/30 08:15:26;;;;;;;24.45;5.40;;;6.00;45.60;;;;;;5027811;28;20887;-76
2022/01/30 08:17:52;;;;;;;21.75;4.55;;;6.10;45.50;;;;;;5010839;28;20416;-75
2022/01/30 08:20:20;;;;;;;27.58;4.70;;;6.10;46.00;;;;;;5000269;28;20460;-76
2022/01/30 08:22:49;;;;;;;26.75;5.10;;;6.10;45.90;;;;;;5008599;28;20412;-78
2022/01/30 08:25:20;;;;;;;24.77;4.35;;;6.10;46.70;;;;;;5013722;28;20436;-75
2022/01/30 08:27:46;;;;;;;29.27;5.40;;;6.20;44.80;;;;;;5007839;28;20420;-75
2022/01/30 08:30:12;;;;;;;17.30;2.80;;;6.20;45.10;;;;;;5000879;28;20445;-77
2022/01/30 08:32:50;;;;;;;17.38;3.53;;;6.30;43.90;;;;;;4994942;28;20390;-76
2022/01/30 08:35:16;;;;;;;21.60;3.90;;;6.30;43.20;;;;;;4991425;28;20466;-76
2022/01/30 08:37:42;;;;;;;31.15;4.53;;;6.30;42.50;;;;;;5010260;28;20393;-76
2022/01/30 08:40:10;;;;;;;24.45;4.10;;;6.30;43.50;;;;;;5012013;28;20397;-76
2022/01/30 08:42:36;;;;;;;23.80;4.10;;;6.40;42.90;;;;;;5011655;28;20463;-76
2022/01/30 08:45:03;;;;;;;24.13;5.40;;;6.50;42.50;;;;;;5012067;28;20398;-76
2022/01/30 08:47:29;;;;;;;30.92;4.63;;;6.60;42.20;;;;;;4993025;28;20392;-76
2022/01/30 08:49:54;;;;;;;23.92;4.25;;;6.60;41.90;;;;;;5012490;28;20455;-76
2022/01/30 08:52:20;;;;;;;36.65;5.25;;;6.70;40.70;;;;;;5017150;28;20758;-76
2022/01/30 08:54:48;;;;;;;26.83;5.00;;;6.70;41.20;;;;;;5008801;28;20967;-77
2022/01/30 08:57:14;;;;;;;30.55;5.65;;;6.80;40.80;;;;;;5010393;28;21039;-75
2022/01/30 08:59:39;;;;;;;23.98;5.25;;;6.80;40.30;;;;;;5017355;28;20389;-76
2022/01/30 09:02:05;;;;;;;34.25;4.75;;;6.80;40.70;;;;;;4999390;28;20421;-75
2022/01/30 09:04:30;;;;;;;21.75;4.80;;;6.90;40.00;;;;;;5008899;28;20500;-76
2022/01/30 09:06:56;;;;;;;29.67;4.97;;;6.90;39.70;;;;;;5021482;28;20491;-76
2022/01/30 09:09:22;;;;;;;28.00;4.70;;;7.00;39.70;;;;;;5010579;28;20439;-76
2022/01/30 09:11:48;;;;;;;25.20;4.97;;;7.00;39.20;;;;;;5009971;28;20807;-76
2022/01/30 09:14:15;;;;;;;30.83;5.95;;;7.10;38.90;;;;;;5016152;28;20416;-75
2022/01/30 09:16:41;;;;;;;21.27;3.90;;;7.30;38.30;;;;;;5021792;28;20405;-74
2022/01/30 09:19:07;;;;;;;27.02;4.70;;;7.40;38.10;;;;;;5026621;28;20398;-74
2022/01/30 09:21:33;;;;;;;23.20;4.30;;;7.30;37.50;;;;;;5023417;28;20404;-75
2022/01/30 09:23:58;;;;;;;28.55;5.40;;;7.20;38.30;;;;;;5017554;28;21016;-76
2022/01/30 09:26:24;;;;;;;36.05;5.65;;;7.10;39.10;;;;;;5014099;28;20514;-76
2022/01/30 09:28:49;;;;;;;29.63;5.30;;;7.20;38.60;;;;;;5013786;28;20401;-75
2022/01/30 09:31:15;;;;;;;22.05;4.72;;;7.30;38.50;;;;;;5023125;28;20495;-77
2022/01/30 09:33:40;;;;;;;31.10;5.57;;;7.50;37.30;;;;;;4998145;28;20433;-75
2022/01/30 09:36:07;;;;;;;24.50;4.97;;;7.60;37.30;;;;;;5015746;28;20400;-75
2022/01/30 09:38:32;;;;;;;26.63;5.40;;;7.70;36.60;;;;;;5027489;28;20924;-76
2022/01/30 09:40:59;;;;;;;24.00;4.80;;;7.70;36.90;;;;;;5023477;28;20401;-76
2022/01/30 09:43:27;;;;;;;27.35;5.35;;;7.80;36.00;;;;;;5013309;28;20457;-76
2022/01/30 09:45:53;;;;;;;22.60;3.25;;;7.90;35.30;;;;;;5006441;28;20432;-75
2022/01/30 09:48:22;;;;;;;23.30;5.45;;;7.70;34.80;;;;;;5019194;28;20412;-75
2022/01/30 09:50:49;;;;;;;27.70;5.38;;;7.60;35.30;;;;;;5022576;28;20425;-74
2022/01/30 09:53:15;;;;;;;24.65;4.75;;;7.80;36.10;;;;;;5018100;28;20412;-74
2022/01/30 09:55:41;;;;;;;19.23;3.63;;;7.80;35.50;;;;;;5000407;28;20412;-74
2022/01/30 09:58:07;;;;;;;30.00;5.25;;;7.80;35.50;;;;;;5018442;28;20396;-73
2022/01/30 10:00:34;;;;;;;28.35;5.28;;;7.80;35.20;;;;;;5027562;28;20453;-76
2022/01/30 10:02:59;;;;;;;18.85;4.60;;;7.80;35.40;;;;;;5016562;28;20408;-74
2022/01/30 10:05:26;;;;;;;30.58;4.38;;;7.80;35.20;;;;;;5018467;28;20766;-74
2022/01/30 10:07:54;;;;;;;23.40;4.30;;;7.60;35.50;;;;;;5016510;28;20460;-74
2022/01/30 10:10:24;;;;;;;18.65;3.70;;;7.50;36.20;;;;;;5025846;28;20913;-74
2022/01/30 10:13:18;;;;;;;21.50;2.88;;;7.30;36.00;;;;;;5021796;28;20472;-74
2022/01/30 10:16:10;;;;;;;36.97;5.68;;;7.20;35.30;;;;;;4988878;28;20409;-75
2022/01/30 10:18:43;;;;;;;32.47;5.55;;;7.30;33.70;;;;;;5011768;28;20401;-74
2022/01/30 10:21:20;;;;;;;19.52;3.15;;;7.40;33.50;;;;;;5015576;28;20399;-75
2022/01/30 10:23:45;;;;;;;;;;;7.40;33.70;;;;;;5017203;28;20169;-74
2022/01/30 10:26:12;;;;;;;;;;;7.30;33.50;;;;;;5017018;28;19909;-73
2022/01/30 10:28:40;;;;;;;;;;;7.40;34.00;;;;;;5027312;28;20029;-74
2022/01/30 10:31:06;;;;;;;;;;;7.40;33.80;;;;;;5000531;28;19945;-74
2022/01/30 10:33:48;;;;;;;;;;;7.40;33.60;;;;;;4994435;28;19906;-74
2022/01/30 10:36:25;;;;;;;12.63;2.85;;;7.50;33.80;;;;;;5011746;28;20179;-74
2022/01/30 10:39:13;;;;;;;35.00;6.03;;;7.40;32.80;;;;;;5013787;28;20412;-74
2022/01/30 10:41:48;;;;;;;26.80;4.13;;;7.50;32.10;;;;;;5017824;28;20802;-74
2022/01/30 10:44:14;;;;;;;28.77;4.32;;;7.70;31.30;;;;;;5012316;28;20388;-78
2022/01/30 10:46:42;;;;;;;23.30;4.17;;;7.90;30.50;;;;;;4993709;28;20404;-75
2022/01/30 10:49:16;;;;;;;16.40;3.33;;;7.90;29.20;;;;;;5011991;28;20535;-74
2022/01/30 10:51:53;;;;;;;12.05;3.22;;;7.60;30.10;;;;;;5013204;28;20841;-73
2022/01/30 10:54:18;;;;;;;21.55;4.28;;;7.40;30.10;;;;;;5022334;28;20478;-75
2022/01/30 10:56:44;;;;;;;25.00;4.43;;;7.50;30.90;;;;;;5011582;28;20561;-73
2022/01/30 10:59:13;;;;;;;22.27;4.53;;;7.50;30.50;;;;;;4995838;28;20403;-73
2022/01/30 11:01:44;;;;;;;28.80;4.85;;;7.50;30.70;;;;;;4994373;28;20404;-73
2022/01/30 11:04:27;;;;;;;30.40;4.93;;;7.60;30.10;;;;;;5011388;28;20407;-73
2022/01/30 11:06:54;;;;;;;25.80;4.20;;;7.60;30.00;;;;;;5013402;28;20403;-74
2022/01/30 11:09:31;;;;;;;32.40;3.75;;;7.70;29.80;;;;;;5013109;28;20404;-73
2022/01/30 11:12:01;;;;;;;31.20;5.10;;;7.70;28.90;;;;;;5014063;28;20982;-73
2022/01/30 11:17:22;;;;;;;23.25;4.15;;;7.70;28.80;;;;;;5011548;28;20459;-73
2022/01/30 11:19:52;;;;;;;33.28;4.20;;;7.70;28.00;;;;;;5021567;28;20836;-75
2022/01/30 11:22:22;;;;;;;29.55;5.53;;;7.80;27.90;;;;;;5001303;28;20413;-74
2022/01/30 11:25:03;;;;;;;21.17;4.82;;;7.90;27.50;;;;;;5011172;28;20466;-74
2022/01/30 11:27:31;;;;;;;29.95;5.43;;;8.00;26.80;;;;;;5011045;28;20409;-72
2022/01/30 11:29:58;;;;;;;34.15;5.78;;;8.00;26.70;;;;;;5011229;28;20404;-72
2022/01/30 11:32:27;;;;;;;21.02;4.57;;;8.00;26.90;;;;;;5010043;28;20739;-74
2022/01/30 11:34:57;;;;;;;20.40;4.82;;;8.00;27.00;;;;;;5012026;28;20409;-73
2022/01/30 11:37:29;;;;;;;28.15;5.05;;;7.80;28.30;;;;;;5017685;28;20421;-75
2022/01/30 11:39:55;;;;;;;24.42;5.20;;;7.90;28.10;;;;;;5017966;28;20490;-75
2022/01/30 11:42:23;;;;;;;17.80;4.05;;;7.80;27.30;;;;;;5013159;28;20412;-78
2022/01/30 11:45:01;;;;;;;27.23;5.10;;;7.70;26.60;;;;;;5014465;28;20447;-74
2022/01/30 11:47:26;;;;;;;26.92;5.97;;;7.50;26.00;;;;;;5008659;28;20404;-75
2022/01/30 11:50:01;;;;;;;21.93;4.23;;;7.50;25.80;;;;;;4991368;28;20394;-74
2022/01/30 11:52:52;;;;;;;36.55;5.18;;;7.50;25.60;;;;;;5004586;28;20757;-73
2022/01/30 11:55:43;;;;;;;26.60;5.50;;;7.50;24.60;;;;;;5010466;28;20396;-74
2022/01/30 11:58:32;;;;;;;18.83;3.83;;;7.60;24.90;;;;;;4991343;28;20390;-74
2022/01/30 12:01:01;;;;;;;28.75;5.55;;;7.60;23.20;;;;;;5015951;28;20184;-74
2022/01/30 12:03:37;;;;;;;36.43;5.67;;;7.80;23.50;;;;;;5023727;28;20212;-74
2022/01/30 12:06:21;;;;;;;28.30;4.00;;;7.90;23.70;;;;;;5012396;28;20422;-75
2022/01/30 12:08:54;;;;;;;29.03;4.70;;;8.00;23.80;;;;;;5012038;28;20172;-75
2022/01/30 12:11:37;;;;;;;9.63;2.60;;;8.00;23.60;;;;;;5011793;28;20423;-75
2022/01/30 12:14:30;;;;;;;24.57;3.57;;;8.00;23.50;;;;;;5012135;28;20427;-75
2022/01/30 12:16:57;;;;;;;14.90;4.03;;;7.90;22.80;;;;;;5002954;28;20479;-74
2022/01/30 12:19:41;;;;;;;10.02;2.55;;;8.00;23.10;;;;;;5012221;28;20435;-74
2022/01/30 12:22:16;;;;;;;37.90;5.60;;;8.10;22.30;;;;;;5012340;28;20207;-75
2022/01/30 12:24:43;;;;;;;30.02;5.00;;;8.30;22.80;;;;;;5031496;28;20764;-75
2022/01/30 12:27:09;;;;;;;17.70;2.83;;;8.40;22.60;;;;;;5016707;28;20188;-75
2022/01/30 12:29:35;;;;;;;37.43;5.20;;;8.30;22.10;;;;;;5011951;28;20464;-75
2022/01/30 12:32:19;;;;;;;20.03;3.37;;;8.50;21.80;;;;;;5011559;28;20230;-74
2022/01/30 12:35:00;;;;;;;32.43;7.00;;;8.70;22.00;;;;;;5011818;28;20539;-75
2022/01/30 12:37:35;;;;;;;22.13;2.97;;;8.80;20.90;;;;;;5011861;28;20429;-73
2022/01/30 12:40:14;;;;;;;27.27;6.50;;;8.80;20.30;;;;;;4992334;28;20447;-73
2022/01/30 12:42:40;;;;;;;30.67;5.32;;;8.50;20.20;;;;;;5005524;28;20526;-76
2022/01/30 12:45:09;;;;;;;23.38;4.05;;;8.60;20.70;;;;;;5012872;28;20479;-73
2022/01/30 12:47:56;;;;;;;13.33;4.00;;;8.60;20.20;;;;;;5015557;28;20183;-74
2022/01/30 12:50:27;;;;;;;15.03;2.30;;;8.60;20.60;;;;;;5015891;28;20904;-74
2022/01/30 12:52:54;;;;;;;17.17;3.27;;;8.60;21.10;;;;;;5016245;28;20553;-74
2022/01/30 12:55:20;;;;;;;;;;;8.50;20.70;;;;;;5000692;28;20296;-73
2022/01/30 12:57:47;;;;;;;;;;;8.30;21.40;;;;;;5020680;28;19913;-74
2022/01/30 13:00:16;;;;;;;;;;;8.40;21.80;;;;;;5027596;28;19910;-74
2022/01/30 13:02:57;;;;;;;;;;;8.40;22.20;;;;;;5016846;28;19909;-73
2022/01/30 13:05:23;;;;;;;;;;;8.30;22.80;;;;;;5016383;28;19916;-73
2022/01/30 13:07:55;;;;;;;;;;;8.30;22.90;;;;;;5021649;28;19905;-74
2022/01/30 13:10:21;;;;;;;;;;;8.30;23.10;;;;;;5022531;28;19992;-75
2022/01/30 13:12:47;;;;;;;;;;;8.40;23.30;;;;;;5020188;28;19912;-75
2022/01/30 13:15:14;;;;;;;;;;;8.30;23.50;;;;;;5019897;28;19921;-76
2022/01/30 13:17:40;;;;;;;;;;;8.20;23.20;;;;;;5019027;28;20251;-74
2022/01/30 13:20:06;;;;;;;;;;;8.20;23.60;;;;;;5012555;28;19923;-74
2022/01/30 13:22:37;;;;;;;;;;;8.10;23.40;;;;;;5024209;28;19999;-74
2022/01/30 13:25:04;;;;;;;;;;;8.10;23.50;;;;;;5022757;28;19980;-75
2022/01/30 13:27:30;;;;;;;;;;;8.10;23.20;;;;;;5005073;28;20277;-75
2022/01/30 13:29:55;;;;;;;;;;;8.10;22.80;;;;;;5021799;28;20007;-75
2022/01/30 13:32:23;;;;;;;;;;;8.20;22.90;;;;;;5018270;28;20294;-75
2022/01/30 13:34:49;;;;;;;;;;;8.40;23.30;;;;;;5016778;28;20713;-75
2022/01/30 13:37:16;;;;;;;;;;;8.30;22.90;;;;;;5006327;28;20374;-74
2022/01/30 13:48:15;;;;;;;;;;;8.20;22.40;;;;;;5013237;28;19973;-74
2022/01/30 13:50:40;;;;;;;;;;;8.30;21.90;;;;;;5005211;28;19975;-73
2022/01/30 13:53:10;;;;;;;;;;;8.50;22.00;;;;;;5016838;28;19913;-74
2022/01/30 13:55:51;;;;;;;;;;;8.50;21.70;;;;;;4994948;28;20021;-74
2022/01/30 13:58:17;;;;;;;;;;;8.70;21.80;;;;;;5027379;28;19920;-74
2022/01/30 14:00:42;;;;;;;;;;;8.80;21.30;;;;;;5018058;28;20004;-75
2022/01/30 14:03:11;;;;;;;;;;;8.90;21.40;;;;;;5016507;28;19992;-74
2022/01/30 14:05:40;;;;;;;;;;;8.70;21.30;;;;;;5017959;28;19920;-75
2022/01/30 14:08:10;;;;;;;;;;;8.50;20.80;;;;;;5026701;28;20283;-75